Time;durP1;ratioP1;P1;durP2;ratioP2;P2;SDS_P1;SDS_P2;PMS_P1;PMS_P2;Temp;Humidity;BMP_temperature;BMP_pressure;BME280_temperature;BME280_humidity;BME280_pressure;Samples;Min_cycle;Max_cycle;Signal;HPM_P1;HPM_P2
2021/07/18 00:02:06;;;;;;;3.97;3.58;;;;;;;17.03;82.85;102412.41;10462850;28;20045;-62
2021/07/18 00:07:09;;;;;;;4.90;3.20;;;;;;;17.68;80.14;102409.38;10462356;28;20381;-61
2021/07/18 00:12:12;;;;;;;7.82;3.60;;;;;;;17.50;80.53;102410.50;10462489;28;20051;-62
2021/07/18 00:17:14;;;;;;;6.32;3.50;;;;;;;17.40;80.54;102413.72;10461710;28;20060;-61
2021/07/18 00:22:17;;;;;;;7.85;4.18;;;;;;;17.15;82.90;102405.56;10462246;28;20077;-62
2021/07/18 00:27:19;;;;;;;8.90;5.20;;;;;;;17.20;82.52;102404.34;10461224;28;20409;-61
2021/07/18 00:32:21;;;;;;;6.72;3.70;;;;;;;17.33;81.97;102401.81;10461788;28;20056;-61
2021/07/18 00:37:24;;;;;;;7.15;4.15;;;;;;;17.25;82.60;102399.63;10459947;28;20500;-61
2021/07/18 00:42:26;;;;;;;9.63;4.43;;;;;;;17.36;82.21;102395.47;10461078;28;20500;-61
2021/07/18 00:47:29;;;;;;;7.60;4.50;;;;;;;17.30;81.35;102391.41;10461061;28;20049;-61
2021/07/18 00:52:31;;;;;;;5.82;4.45;;;;;;;17.29;82.39;102388.84;10459522;28;20049;-61
2021/07/18 00:57:34;;;;;;;5.90;4.35;;;;;;;17.34;81.73;102382.31;10459312;28;20052;-62
2021/07/18 01:02:38;;;;;;;5.88;4.22;;;;;;;17.39;81.91;102392.63;10459371;28;20045;-62
2021/07/18 01:07:40;;;;;;;9.57;5.03;;;;;;;17.37;81.83;102383.94;10458969;28;20103;-61
2021/07/18 01:12:42;;;;;;;5.50;4.75;;;;;;;17.45;81.53;102386.97;10459250;28;20045;-62
2021/07/18 01:18:06;;;;;;;10.32;5.70;;;;;;;17.29;82.27;102384.38;10458828;28;20126;-63
2021/07/18 01:23:09;;;;;;;10.13;5.25;;;;;;;17.09;83.80;102386.44;10458796;28;20045;-62
2021/07/18 01:28:12;;;;;;;12.00;5.90;;;;;;;17.26;83.28;102379.28;10459057;28;20511;-61
2021/07/18 01:33:15;;;;;;;9.75;5.47;;;;;;;17.26;83.34;102376.63;10459535;28;20045;-60
2021/07/18 01:38:18;;;;;;;9.80;5.20;;;;;;;17.38;82.24;102369.72;10457854;28;20479;-61
2021/07/18 01:43:20;;;;;;;9.63;4.85;;;;;;;17.17;83.21;102367.47;10458830;28;20048;-62
2021/07/18 01:48:23;;;;;;;11.00;6.40;;;;;;;16.99;83.89;102366.75;10457347;28;20127;-61
2021/07/18 01:53:25;;;;;;;8.35;5.47;;;;;;;17.26;82.46;102361.63;10458952;28;20045;-60
2021/07/18 01:58:29;;;;;;;9.25;6.18;;;;;;;17.17;82.35;102358.69;10458050;28;20044;-61
2021/07/18 02:03:31;;;;;;;8.25;5.68;;;;;;;16.99;83.38;102360.63;10458224;28;20052;-60
2021/07/18 02:08:33;;;;;;;10.18;6.55;;;;;;;16.97;83.25;102362.53;10458076;28;20049;-62
2021/07/18 02:13:36;;;;;;;9.20;6.05;;;;;;;16.96;83.44;102360.81;10456725;28;20045;-61
2021/07/18 02:18:39;;;;;;;10.75;7.10;;;;;;;16.71;84.60;102360.44;10456010;28;20079;-60
2021/07/18 02:23:41;;;;;;;10.40;6.43;;;;;;;16.78;84.17;102357.41;10457325;28;20078;-61
2021/07/18 02:28:43;;;;;;;8.48;6.47;;;;;;;17.01;83.80;102354.31;10457569;28;20053;-62
2021/07/18 02:33:46;;;;;;;13.65;8.35;;;;;;;16.93;85.60;102353.91;10456199;28;20044;-61
2021/07/18 02:38:48;;;;;;;30.65;13.00;;;;;;;16.82;86.26;102357.16;10456708;28;20056;-62
2021/07/18 02:43:50;;;;;;;32.30;12.02;;;;;;;16.86;86.28;102356.06;10456886;28;20052;-61
2021/07/18 02:48:53;;;;;;;22.75;11.73;;;;;;;17.11;85.93;102359.03;10456572;28;20106;-61
2021/07/18 02:53:55;;;;;;;26.65;11.73;;;;;;;16.99;86.56;102358.81;10456492;28;20405;-61
2021/07/18 02:58:57;;;;;;;39.15;10.65;;;;;;;16.91;87.12;102358.44;10456473;28;20045;-60
2021/07/18 03:04:00;;;;;;;28.00;11.20;;;;;;;17.11;86.10;102357.22;10456012;28;20060;-62
2021/07/18 03:09:02;;;;;;;20.63;11.88;;;;;;;17.18;86.54;102352.41;10456100;28;20052;-60
2021/07/18 03:14:04;;;;;;;23.52;11.38;;;;;;;17.19;86.22;102356.78;10456327;28;20049;-61
2021/07/18 03:19:07;;;;;;;23.42;13.10;;;;;;;17.17;86.33;102342.81;10456344;28;20049;-61
2021/07/18 03:24:09;;;;;;;15.93;9.75;;;;;;;17.46;85.46;102346.28;10456034;28;20047;-62
2021/07/18 03:29:12;;;;;;;18.48;11.73;;;;;;;17.41;85.60;102343.09;10456935;28;20485;-61
2021/07/18 03:34:14;;;;;;;18.27;9.65;;;;;;;17.16;86.12;102343.72;10464167;28;20051;-60
2021/07/18 03:39:17;;;;;;;17.02;11.63;;;;;;;17.09;86.36;102340.59;10463573;28;20053;-61
2021/07/18 03:44:19;;;;;;;14.88;10.32;;;;;;;17.49;85.15;102346.09;10463461;28;20049;-60
2021/07/18 03:49:21;;;;;;;20.52;12.85;;;;;;;17.16;86.51;102346.38;10462998;28;20480;-62
2021/07/18 03:54:23;;;;;;;20.00;11.07;;;;;;;17.20;86.51;102346.09;10463670;28;20072;-60
2021/07/18 03:59:26;;;;;;;20.30;11.95;;;;;;;17.23;86.38;102353.88;10463099;28;20045;-62
2021/07/18 04:04:28;;;;;;;20.45;13.38;;;;;;;17.22;86.96;102357.44;10462807;28;20049;-61
2021/07/18 04:09:31;;;;;;;23.60;12.90;;;;;;;17.43;86.49;102367.66;10462738;28;20072;-62
2021/07/18 04:14:33;;;;;;;17.17;12.40;;;;;;;17.48;86.40;102354.13;10462599;28;20061;-61
2021/07/18 04:19:35;;;;;;;19.67;11.68;;;;;;;17.38;86.15;102344.13;10462179;28;20045;-61
2021/07/18 04:24:38;;;;;;;22.02;11.52;;;;;;;17.33;86.69;102350.63;10462028;28;20052;-61
2021/07/18 04:29:40;;;;;;;14.65;10.07;;;;;;;17.46;85.84;102348.94;10460833;28;20048;-60
2021/07/18 04:34:45;;;;;;;16.83;11.48;;;;;;;17.31;86.42;102350.72;10461943;28;20052;-61
2021/07/18 04:39:47;;;;;;;23.42;12.25;;;;;;;17.45;86.03;102353.41;10461257;28;20119;-62
2021/07/18 04:44:50;;;;;;;19.88;12.60;;;;;;;17.72;84.98;102357.03;10460252;28;20052;-61
2021/07/18 04:49:53;;;;;;;17.83;12.02;;;;;;;17.59;85.34;102357.81;10460928;28;20059;-60
2021/07/18 04:54:55;;;;;;;22.35;15.23;;;;;;;17.08;87.20;102362.75;10460786;28;20049;-61
2021/07/18 04:59:58;;;;;;;19.27;11.73;;;;;;;17.64;85.50;102365.50;10460394;28;20485;-62
2021/07/18 05:05:00;;;;;;;15.18;10.73;;;;;;;17.83;84.66;102359.88;10460134;28;20447;-61
2021/07/18 05:10:03;;;;;;;18.92;12.32;;;;;;;17.67;85.42;102369.72;10459975;28;20417;-60
2021/07/18 05:15:06;;;;;;;15.15;10.32;;;;;;;17.50;85.86;102363.72;10460426;28;20061;-62
2021/07/18 05:20:10;;;;;;;18.85;12.95;;;;;;;17.27;85.99;102371.25;10459878;28;20493;-61
2021/07/18 05:25:12;;;;;;;19.48;11.40;;;;;;;17.46;85.57;102363.03;10459615;28;20044;-61
2021/07/18 05:30:15;;;;;;;14.50;10.45;;;;;;;17.70;84.45;102351.88;10459514;28;20040;-61
2021/07/18 05:35:17;;;;;;;13.23;11.00;;;;;;;17.49;84.81;102356.69;10459442;28;20049;-61
2021/07/18 05:40:19;;;;;;;14.85;11.10;;;;;;;17.44;85.02;102356.13;10458226;28;20048;-60
2021/07/18 05:45:22;;;;;;;16.02;11.85;;;;;;;17.41;84.82;102358.97;10457651;28;20497;-60
2021/07/18 05:50:25;;;;;;;11.52;10.02;;;;;;;17.56;84.99;102354.53;10458101;28;20041;-62
2021/07/18 05:55:27;;;;;;;12.60;10.65;;;;;;;17.39;85.59;102352.91;10457877;28;20057;-61
2021/07/18 06:00:29;;;;;;;11.38;9.07;;;;;;;17.62;84.58;102346.19;10458210;28;20500;-60
2021/07/18 06:05:32;;;;;;;13.43;9.70;;;;;;;17.76;84.17;102345.31;10456965;28;20052;-61
2021/07/18 06:10:34;;;;;;;10.68;8.95;;;;;;;17.94;83.74;102349.47;10457878;28;20042;-61
2021/07/18 06:15:37;;;;;;;11.82;9.40;;;;;;;18.04;83.65;102360.34;10457888;28;20061;-62
2021/07/18 06:20:39;;;;;;;10.35;8.75;;;;;;;18.11;83.75;102361.66;10457696;28;20045;-62
2021/07/18 06:25:42;;;;;;;10.82;8.13;;;;;;;18.12;83.46;102347.44;10457352;28;20049;-61
2021/07/18 06:30:44;;;;;;;12.00;8.30;;;;;;;18.36;82.54;102357.41;10457330;28;20068;-61
2021/07/18 06:35:46;;;;;;;11.95;8.05;;;;;;;18.65;79.69;102354.63;10457063;28;20106;-61
2021/07/18 06:40:49;;;;;;;10.40;7.70;;;;;;;18.61;81.17;102356.63;10457171;28;20045;-62
2021/07/18 06:45:51;;;;;;;7.65;6.78;;;;;;;18.52;81.39;102352.75;10456809;28;20048;-62
2021/07/18 06:50:54;;;;;;;11.50;7.88;;;;;;;18.84;80.47;102346.28;10457259;28;20040;-63
2021/07/18 06:55:56;;;;;;;9.35;6.55;;;;;;;18.99;80.52;102360.31;10456669;28;20055;-59
2021/07/18 07:00:58;;;;;;;10.52;6.60;;;;;;;19.15;79.52;102362.75;10456442;28;20049;-60
2021/07/18 07:06:02;;;;;;;10.02;7.28;;;;;;;19.22;78.50;102358.75;10461248;28;20053;-60
2021/07/18 07:11:05;;;;;;;9.15;5.47;;;;;;;19.52;76.44;102369.03;10465152;28;20041;-60
2021/07/18 07:16:07;;;;;;;7.40;4.80;;;;;;;19.63;75.43;102362.94;10464909;28;20122;-61
2021/07/18 07:21:10;;;;;;;5.35;4.40;;;;;;;19.99;74.08;102366.59;10464614;28;20048;-61
2021/07/18 07:26:12;;;;;;;7.43;4.85;;;;;;;20.49;73.37;102367.31;10464197;28;20048;-60
2021/07/18 07:31:14;;;;;;;6.50;4.05;;;;;;;21.03;70.28;102362.41;10464077;28;20471;-62
2021/07/18 07:36:17;;;;;;;7.28;5.10;;;;;;;21.59;70.07;102361.66;10463504;28;20063;-60
2021/07/18 07:41:20;;;;;;;7.63;5.15;;;;;;;21.80;69.87;102353.72;10463587;28;20515;-59
2021/07/18 07:46:22;;;;;;;8.05;4.95;;;;;;;22.30;69.34;102354.13;10463748;28;20052;-60
2021/07/18 07:51:25;;;;;;;5.82;5.18;;;;;;;22.22;67.78;102352.03;10464216;28;20076;-60
2021/07/18 07:56:27;;;;;;;10.93;6.53;;;;;;;22.71;66.48;102351.59;10463166;28;20057;-61
2021/07/18 08:01:29;;;;;;;6.25;4.45;;;;;;;22.95;66.71;102357.53;10463504;28;20044;-61
2021/07/18 08:06:32;;;;;;;7.18;3.38;;;;;;;23.62;64.10;102354.47;10462385;28;20049;-61
2021/07/18 08:11:34;;;;;;;4.28;3.15;;;;;;;23.79;63.49;102359.19;10462527;28;20045;-60
2021/07/18 08:16:37;;;;;;;6.20;2.88;;;;;;;24.38;61.95;102349.41;10461840;28;20068;-60
2021/07/18 08:21:39;;;;;;;5.00;2.90;;;;;;;24.40;61.16;102341.25;10462227;28;20048;-61
2021/07/18 08:26:43;;;;;;;3.22;2.03;;;;;;;24.60;62.54;102332.22;10461993;28;20045;-61
2021/07/18 08:31:45;;;;;;;5.68;2.90;;;;;;;25.11;59.17;102329.28;10461957;28;20053;-60
2021/07/18 08:36:47;;;;;;;6.05;2.67;;;;;;;24.32;60.51;102328.56;10460248;28;20052;-60
2021/07/18 08:41:53;;;;;;;8.52;4.65;;;;;;;24.72;60.60;102330.22;10460148;28;20041;-62
2021/07/18 08:46:55;;;;;;;7.15;2.70;;;;;;;25.40;59.09;102329.16;10461223;28;20053;-60
2021/07/18 08:51:58;;;;;;;4.15;2.58;;;;;;;25.54;57.72;102335.91;10461521;28;20041;-61
2021/07/18 08:57:02;;;;;;;8.98;3.25;;;;;;;26.02;56.72;102328.53;10459791;28;20053;-60
2021/07/18 09:02:05;;;;;;;4.57;2.63;;;;;;;25.98;58.19;102329.84;10459159;28;20053;-63
2021/07/18 09:07:11;;;;;;;7.72;4.53;;;;;;;26.15;56.56;102329.00;10460255;28;20049;-61
2021/07/18 09:12:14;;;;;;;6.80;2.80;;;;;;;26.91;53.87;102329.44;10460329;28;20049;-62
2021/07/18 09:17:20;;;;;;;5.03;3.92;;;;;;;26.24;54.99;102324.53;10459261;28;20067;-61
2021/07/18 09:22:23;;;;;;;4.57;3.13;;;;;;;26.83;54.87;102319.47;10459956;28;20087;-60
2021/07/18 09:27:28;;;;;;;8.65;2.47;;;;;;;26.80;55.04;102317.94;10459302;28;20055;-62
2021/07/18 09:32:33;;;;;;;6.20;2.80;;;;;;;27.30;53.94;102324.44;10459579;28;20045;-61
2021/07/18 09:37:38;;;;;;;7.40;2.70;;;;;;;27.21;52.14;102315.47;10460313;28;20059;-60
2021/07/18 09:42:42;;;;;;;5.38;2.70;;;;;;;26.92;55.61;102315.00;10458219;28;20048;-61
2021/07/18 09:48:08;;;;;;;4.90;2.63;;;;;;;27.13;52.69;102301.97;10458519;28;20055;-61
2021/07/18 09:53:16;;;;;;;5.18;2.90;;;;;;;27.42;52.15;102304.31;10458818;28;20080;-61
2021/07/18 09:58:21;;;;;;;5.85;2.78;;;;;;;27.15;51.09;102300.00;10458395;28;20178;-61
2021/07/18 10:03:26;;;;;;;7.75;2.63;;;;;;;26.91;51.70;102284.56;10457055;28;20060;-61
2021/07/18 10:08:28;;;;;;;4.55;2.33;;;;;;;27.78;51.57;102298.69;10457504;28;20481;-62
2021/07/18 10:13:30;;;;;;;5.30;2.50;;;;;;;28.82;50.33;102280.16;10457289;28;20508;-62
2021/07/18 10:18:35;;;;;;;5.22;2.22;;;;;;;28.43;49.63;102275.50;10456764;28;20145;-59
2021/07/18 10:23:42;;;;;;;2.45;2.17;;;;;;;29.36;44.43;102281.31;10457281;28;20492;-61
2021/07/18 10:28:54;;;;;;;3.67;2.47;;;;;;;29.37;47.86;102275.75;10457182;28;20493;-60
2021/07/18 10:33:56;;;;;;;4.88;1.73;;;;;;;29.38;48.01;102271.19;10457537;28;20045;-60
2021/07/18 10:38:59;;;;;;;4.78;1.85;;;;;;;29.30;46.13;102263.13;10455454;28;20530;-62
2021/07/18 10:44:15;;;;;;;2.88;2.00;;;;;;;30.13;47.03;102257.00;10456823;28;20504;-63
2021/07/18 10:49:18;;;;;;;6.72;3.30;;;;;;;29.81;45.59;102258.97;10456416;28;20132;-62
2021/07/18 10:54:21;;;;;;;2.45;2.00;;;;;;;29.27;43.58;102259.78;10455082;28;20501;-60
2021/07/18 10:59:35;;;;;;;5.72;1.90;;;;;;;31.37;41.75;102253.75;10456159;28;20060;-60
2021/07/18 11:04:45;;;;;;;3.95;1.80;;;;;;;29.57;42.60;102253.69;10456471;28;20127;-60
2021/07/18 11:10:15;;;;;;;1.73;1.48;;;;;;;31.43;42.58;102249.44;10456387;28;20044;-60
2021/07/18 11:15:43;;;;;;;4.37;1.57;;;;;;;30.21;43.42;102239.84;10453171;28;20052;-61
2021/07/18 11:20:48;;;;;;;1.80;1.70;;;;;;;29.59;44.60;102236.31;10455877;28;20067;-62
2021/07/18 11:25:59;;;;;;;2.97;1.95;;;;;;;31.15;42.56;102230.38;10455973;28;20088;-60
2021/07/18 11:31:10;;;;;;;4.55;2.08;;;;;;;31.73;39.93;102233.94;10454677;28;20045;-61
2021/07/18 11:36:15;;;;;;;3.70;1.70;;;;;;;30.67;40.15;102230.81;10456321;28;20045;-61
2021/07/18 11:41:23;;;;;;;1.70;1.60;;;;;;;32.77;39.91;102224.28;10455435;28;20531;-61
2021/07/18 11:46:28;;;;;;;3.80;1.40;;;;;;;31.76;39.13;102230.84;10455366;28;20049;-61
2021/07/18 11:51:37;;;;;;;3.97;1.70;;;;;;;32.13;39.63;102225.34;10458931;28;20140;-61
2021/07/18 11:56:42;;;;;;;1.85;1.30;;;;;;;32.49;38.78;102219.72;10463119;28;20052;-63
2021/07/18 12:01:55;;;;;;;1.83;1.60;;;;;;;31.92;39.91;102224.28;10463214;28;20053;-60
2021/07/18 12:07:09;;;;;;;1.50;1.40;;;;;;;32.36;37.71;102212.38;10462590;28;20520;-62
2021/07/18 12:12:17;;;;;;;2.97;1.42;;;;;;;32.21;39.32;102217.03;10462885;28;20045;-62
2021/07/18 12:17:19;;;;;;;4.63;1.80;;;;;;;31.22;41.16;102207.81;10461356;28;20401;-61
2021/07/18 12:22:22;;;;;;;2.78;1.90;;;;;;;32.57;38.85;102202.47;10462040;28;20049;-64
2021/07/18 12:27:27;;;;;;;2.30;2.10;;;;;;;31.20;38.16;102206.31;10462051;28;20045;-62
2021/07/18 12:32:36;;;;;;;8.18;4.00;;;;;;;31.80;43.54;102193.38;10461795;28;20061;-64
2021/07/18 12:37:39;;;;;;;3.83;2.35;;;;;;;32.35;39.63;102188.19;10461817;28;20057;-62
2021/07/18 12:42:45;;;;;;;2.67;1.90;;;;;;;32.08;38.19;102184.44;10461435;28;20051;-62
2021/07/18 12:48:00;;;;;;;1.60;1.50;;;;;;;31.99;39.21;102183.72;10459925;28;20052;-64
2021/07/18 12:53:03;;;;;;;5.32;2.25;;;;;;;33.40;39.05;102177.94;10461148;28;20058;-62
2021/07/18 12:58:17;;;;;;;2.22;2.03;;;;;;;33.49;37.32;102171.25;10461042;28;20048;-66
2021/07/18 13:03:23;;;;;;;2.08;1.85;;;;;;;33.67;36.72;102175.22;10459502;28;20511;-65
2021/07/18 13:08:37;;;;;;;5.60;3.00;;;;;;;31.76;37.63;102179.41;10460080;28;20048;-63
2021/07/18 13:13:40;;;;;;;3.25;1.83;;;;;;;33.55;37.66;102166.88;10460118;28;20048;-64
2021/07/18 13:18:42;;;;;;;4.85;1.70;;;;;;;32.56;36.91;102166.38;10460032;28;20124;-63
2021/07/18 13:23:45;;;;;;;3.97;2.15;;;;;;;32.29;37.39;102159.16;10459760;28;20053;-63
2021/07/18 13:28:48;;;;;;;3.58;1.73;;;;;;;32.60;37.19;102166.81;10459585;28;20084;-63
2021/07/18 13:33:50;;;;;;;1.90;1.73;;;;;;;32.98;36.48;102170.94;10459228;28;20405;-63
2021/07/18 13:38:52;;;;;;;2.67;1.98;;;;;;;33.77;36.49;102156.66;10459288;28;20048;-62
2021/07/18 13:43:54;;;;;;;2.60;2.40;;;;;;;32.20;37.52;102156.59;10459089;28;20052;-63
2021/07/18 13:48:57;;;;;;;4.05;2.15;;;;;;;32.24;38.67;102153.50;10458694;28;20053;-62
2021/07/18 13:53:59;;;;;;;2.90;2.20;;;;;;;32.99;38.35;102148.22;10458425;28;20053;-62
2021/07/18 13:59:01;;;;;;;2.20;2.00;;;;;;;31.95;39.04;102158.91;10458140;28;20455;-62
2021/07/18 14:04:04;;;;;;;4.47;1.92;;;;;;;31.66;36.67;102157.25;10458158;28;20060;-65
2021/07/18 14:09:08;;;;;;;2.00;1.85;;;;;;;32.56;35.86;102149.28;10457576;28;20049;-63
2021/07/18 14:14:10;;;;;;;5.68;2.40;;;;;;;33.05;34.87;102150.94;10457475;28;20516;-63
2021/07/18 14:19:13;;;;;;;3.13;2.17;;;;;;;30.90;38.15;102153.13;10456554;28;20048;-62
2021/07/18 14:24:15;;;;;;;4.20;1.85;;;;;;;32.00;37.06;102139.38;10457636;28;20053;-62
2021/07/18 14:29:18;;;;;;;2.17;1.83;;;;;;;33.02;36.30;102142.34;10457167;28;20045;-62
2021/07/18 14:34:20;;;;;;;2.58;1.98;;;;;;;32.69;37.84;102141.22;10457233;28;20049;-63
2021/07/18 14:39:22;;;;;;;2.78;2.25;;;;;;;33.72;35.19;102128.47;10456850;28;20079;-62
2021/07/18 14:44:24;;;;;;;3.22;1.80;;;;;;;33.78;34.59;102138.50;10456971;28;20045;-63
2021/07/18 14:49:27;;;;;;;3.25;1.88;;;;;;;32.44;37.39;102132.75;10456648;28;20056;-63
2021/07/18 14:54:29;;;;;;;2.00;1.90;;;;;;;31.87;37.71;102131.97;10457009;28;20059;-63
2021/07/18 14:59:31;;;;;;;2.60;1.80;;;;;;;32.72;37.07;102129.16;10456724;28;20052;-65
2021/07/18 15:04:34;;;;;;;2.22;2.03;;;;;;;32.08;37.36;102120.28;10456511;28;20072;-62
2021/07/18 15:09:36;;;;;;;5.13;2.05;;;;;;;31.96;37.74;102129.94;10456814;28;20083;-65
2021/07/18 15:14:38;;;;;;;4.47;2.67;;;;;;;31.48;39.19;102125.22;10456363;28;20049;-63
2021/07/18 15:19:42;;;;;;;4.43;2.80;;;;;;;31.54;39.85;102129.03;10455684;28;20068;-64
2021/07/18 15:24:44;;;;;;;3.00;2.63;;;;;;;31.07;40.70;102124.00;10456618;28;20083;-64
2021/07/18 15:29:46;;;;;;;3.78;2.13;;;;;;;31.58;38.74;102125.72;10464322;28;20067;-63
2021/07/18 15:34:49;;;;;;;3.50;2.25;;;;;;;31.35;38.93;102125.09;10464412;28;20044;-64
2021/07/18 15:39:51;;;;;;;2.75;1.98;;;;;;;32.30;36.51;102117.50;10464027;28;20432;-63
2021/07/18 15:44:53;;;;;;;5.00;2.10;;;;;;;30.47;37.13;102120.56;10463618;28;20049;-62
2021/07/18 15:49:56;;;;;;;1.70;1.60;;;;;;;30.90;39.04;102123.38;10463201;28;20052;-62
2021/07/18 15:54:58;;;;;;;2.40;2.20;;;;;;;30.70;38.91;102120.44;10463021;28;20519;-62
2021/07/18 16:00:00;;;;;;;1.90;1.80;;;;;;;30.71;37.20;102123.97;10463034;28;20404;-63
2021/07/18 16:05:09;;;;;;;2.63;2.42;;;;;;;30.46;37.58;102118.06;10463005;28;20123;-62
2021/07/18 16:10:12;;;;;;;1.85;1.75;;;;;;;29.47;39.89;102113.63;10463305;28;20049;-61
2021/07/18 16:15:15;;;;;;;3.72;1.98;;;;;;;29.54;39.24;102117.31;10462551;28;20045;-61
2021/07/18 16:20:17;;;;;;;8.07;2.40;;;;;;;29.36;40.43;102120.31;10462680;28;20141;-64
2021/07/18 16:25:19;;;;;;;3.40;3.10;;;;;;;28.04;41.73;102114.72;10462192;28;20045;-62
2021/07/18 16:30:26;;;;;;;2.38;2.03;;;;;;;28.63;42.95;102102.72;10462070;28;20048;-63
2021/07/18 16:35:28;;;;;;;3.63;1.70;;;;;;;28.63;40.82;102114.34;10461775;28;20060;-63
2021/07/18 16:40:31;;;;;;;4.68;2.42;;;;;;;28.26;40.84;102110.44;10460506;28;20045;-62
2021/07/18 16:45:33;;;;;;;4.38;1.83;;;;;;;28.17;44.62;102106.06;10461300;28;20511;-62
2021/07/18 16:50:38;;;;;;;1.88;1.70;;;;;;;28.06;41.73;102112.69;10461199;28;20041;-60
2021/07/18 16:55:40;;;;;;;2.97;1.70;;;;;;;27.82;42.98;102112.69;10460618;28;20075;-61
2021/07/18 17:00:43;;;;;;;3.00;1.60;;;;;;;27.20;43.94;102095.19;10460769;28;20055;-60
2021/07/18 17:05:45;;;;;;;4.18;2.20;;;;;;;27.34;45.37;102096.41;10460574;28;20045;-62
2021/07/18 17:10:48;;;;;;;2.25;1.83;;;;;;;26.78;45.38;102104.19;10460533;28;20045;-61
2021/07/18 17:15:51;;;;;;;2.47;1.98;;;;;;;26.54;45.51;102099.53;10460155;28;20506;-63
2021/07/18 17:20:53;;;;;;;4.32;1.80;;;;;;;26.38;46.36;102106.53;10459640;28;20049;-63
2021/07/18 17:25:56;;;;;;;3.33;1.85;;;;;;;26.51;46.73;102109.59;10458418;28;20379;-61
2021/07/18 17:30:58;;;;;;;2.55;2.05;;;;;;;25.89;48.79;102104.38;10459966;28;20045;-62
2021/07/18 17:36:00;;;;;;;6.47;2.30;;;;;;;25.60;49.22;102107.34;10459127;28;20504;-63
2021/07/18 17:41:03;;;;;;;2.58;1.77;;;;;;;25.72;50.72;102108.78;10459557;28;20402;-63
2021/07/18 17:46:07;;;;;;;3.67;2.40;;;;;;;25.31;50.17;102119.16;10458845;28;20531;-62
2021/07/18 17:51:13;;;;;;;2.72;1.90;;;;;;;25.48;52.50;102122.00;10456936;28;20053;-62
2021/07/18 17:56:16;;;;;;;3.67;2.08;;;;;;;25.21;53.15;102121.03;10458666;28;20060;-62
2021/07/18 18:01:18;;;;;;;5.30;2.70;;;;;;;25.34;53.04;102126.91;10458464;28;20049;-61
2021/07/18 18:06:21;;;;;;;3.72;2.33;;;;;;;24.35;54.38;102127.56;10458325;28;20045;-62
2021/07/18 18:11:24;;;;;;;3.47;2.20;;;;;;;24.56;54.58;102119.34;10458090;28;20059;-60
2021/07/18 18:16:26;;;;;;;4.75;2.22;;;;;;;24.38;54.66;102121.91;10458215;28;20144;-62
2021/07/18 18:21:29;;;;;;;4.55;2.28;;;;;;;24.46;56.31;102130.03;10457535;28;20459;-62
2021/07/18 18:26:31;;;;;;;4.80;2.20;;;;;;;23.94;57.06;102137.66;10457321;28;20072;-62
2021/07/18 18:31:34;;;;;;;6.10;2.28;;;;;;;23.61;57.88;102142.44;10456417;28;20056;-63
2021/07/18 18:36:37;;;;;;;3.28;2.50;;;;;;;23.45;58.15;102142.16;10455907;28;20132;-61
2021/07/18 18:41:40;;;;;;;6.82;2.55;;;;;;;23.39;58.08;102138.22;10457179;28;20049;-62
2021/07/18 18:46:43;;;;;;;6.88;3.05;;;;;;;22.94;59.73;102138.69;10456833;28;20041;-62
2021/07/18 18:51:45;;;;;;;2.50;2.00;;;;;;;22.99;60.37;102142.63;10457114;28;20045;-63
2021/07/18 18:56:49;;;;;;;5.95;2.28;;;;;;;22.45;60.48;102142.03;10456705;28;20060;-63
2021/07/18 19:01:52;;;;;;;7.53;2.78;;;;;;;22.31;59.88;102145.06;10456650;28;20207;-62
2021/07/18 19:06:54;;;;;;;3.60;2.10;;;;;;;22.15;59.42;102148.16;10454924;28;20049;-62
2021/07/18 19:11:57;;;;;;;2.22;2.03;;;;;;;22.15;58.66;102149.97;10456290;28;20503;-61
2021/07/18 19:16:59;;;;;;;3.38;1.85;;;;;;;21.66;59.69;102146.97;10456027;28;20053;-63
2021/07/18 19:22:03;;;;;;;2.90;1.55;;;;;;;21.65;58.76;102153.25;10456453;28;20049;-62
2021/07/18 19:27:07;;;;;;;3.33;1.92;;;;;;;21.62;58.73;102151.72;10455885;28;20052;-63
2021/07/18 19:32:10;;;;;;;1.98;1.50;;;;;;;21.48;59.68;102152.84;10456064;28;20150;-62
2021/07/18 19:37:12;;;;;;;2.95;1.65;;;;;;;21.20;59.11;102153.38;10455692;28;20408;-63
2021/07/18 19:42:16;;;;;;;7.95;1.80;;;;;;;21.24;60.42;102157.50;10456299;28;20045;-62
2021/07/18 19:47:18;;;;;;;1.63;1.50;;;;;;;21.04;60.85;102161.78;10455714;28;20049;-61
2021/07/18 19:52:21;;;;;;;3.20;1.90;;;;;;;20.93;61.67;102163.50;10454344;28;20420;-63
2021/07/18 19:57:23;;;;;;;4.15;1.83;;;;;;;20.63;63.03;102161.44;10455338;28;20049;-61
2021/07/18 20:02:25;;;;;;;4.88;2.17;;;;;;;20.32;63.99;102153.16;10455386;28;20047;-64
2021/07/18 20:07:28;;;;;;;2.95;2.25;;;;;;;20.67;64.33;102167.38;10455554;28;20049;-64
2021/07/18 20:12:30;;;;;;;2.33;1.80;;;;;;;20.15;65.66;102169.56;10458523;28;20041;-62
2021/07/18 20:17:33;;;;;;;3.67;2.20;;;;;;;19.98;65.91;102174.34;10461332;28;20057;-62
2021/07/18 20:22:36;;;;;;;3.13;1.70;;;;;;;19.83;66.63;102170.19;10462250;28;20412;-63
2021/07/18 20:27:40;;;;;;;4.97;1.88;;;;;;;19.57;67.97;102170.31;10460507;28;20049;-63
2021/07/18 20:32:44;;;;;;;5.82;2.10;;;;;;;19.36;68.50;102182.50;10462204;28;20041;-62
2021/07/18 20:37:47;;;;;;;2.28;1.98;;;;;;;19.26;69.78;102184.97;10460379;28;20044;-61
2021/07/18 20:42:49;;;;;;;2.13;1.40;;;;;;;19.17;70.23;102186.50;10461544;28;20068;-63
2021/07/18 20:47:51;;;;;;;2.53;2.00;;;;;;;19.00;70.73;102190.34;10461116;28;20409;-63
2021/07/18 20:52:54;;;;;;;5.45;2.20;;;;;;;19.09;70.63;102192.34;10461747;28;20048;-63
2021/07/18 20:57:56;;;;;;;3.15;2.35;;;;;;;18.80;71.63;102194.38;10459626;28;20056;-62
2021/07/18 21:02:58;;;;;;;2.42;2.10;;;;;;;18.96;71.54;102191.50;10461145;28;20049;-62
2021/07/18 21:08:01;;;;;;;5.30;2.45;;;;;;;18.75;71.85;102183.25;10460385;28;20382;-62
2021/07/18 21:13:04;;;;;;;3.03;2.45;;;;;;;18.58;72.88;102181.78;10460979;28;20049;-61
2021/07/18 21:18:06;;;;;;;2.78;2.35;;;;;;;18.50;73.96;102181.44;10460433;28;20053;-62
2021/07/18 21:23:08;;;;;;;4.38;2.15;;;;;;;18.73;73.47;102191.31;10458762;28;20049;-62
2021/07/18 21:28:11;;;;;;;3.60;2.60;;;;;;;18.34;74.71;102186.94;10459889;28;20136;-61
2021/07/18 21:33:13;;;;;;;7.47;2.70;;;;;;;18.41;74.65;102188.25;10459321;28;20041;-62
2021/07/18 21:38:16;;;;;;;3.88;2.78;;;;;;;18.19;75.74;102194.16;10458298;28;20103;-63
2021/07/18 21:43:19;;;;;;;4.22;3.00;;;;;;;18.12;75.87;102185.78;10459731;28;20041;-64
2021/07/18 21:48:21;;;;;;;4.55;2.90;;;;;;;17.98;77.30;102185.84;10457984;28;20045;-63
2021/07/18 21:53:23;;;;;;;6.53;3.15;;;;;;;18.01;77.23;102188.28;10458333;28;20053;-64
2021/07/18 21:58:25;;;;;;;5.10;3.45;;;;;;;18.07;76.54;102187.88;10458378;28;20045;-63
2021/07/18 22:03:36;;;;;;;4.05;3.28;;;;;;;17.89;78.40;102183.81;10458966;28;20122;-64
2021/07/18 22:08:39;;;;;;;6.00;3.17;;;;;;;17.99;78.08;102190.19;10457922;28;20048;-63
2021/07/18 22:13:41;;;;;;;5.60;3.20;;;;;;;17.83;78.24;102192.97;10458035;28;20051;-62
2021/07/18 22:18:44;;;;;;;6.97;3.63;;;;;;;17.76;78.48;102200.47;10456837;28;20067;-63
2021/07/18 22:23:46;;;;;;;6.68;3.60;;;;;;;17.69;78.72;102198.34;10456313;28;20405;-62
2021/07/18 22:28:48;;;;;;;6.55;3.33;;;;;;;17.64;78.21;102196.00;10457297;28;20049;-63
2021/07/18 22:33:51;;;;;;;3.63;3.13;;;;;;;17.60;78.65;102195.34;10457043;28;20481;-62
2021/07/18 22:38:53;;;;;;;9.00;3.58;;;;;;;17.52;78.99;102200.28;10457248;28;20131;-62
2021/07/18 22:43:56;;;;;;;4.85;3.67;;;;;;;17.44;79.26;102199.94;10455745;28;20408;-62
2021/07/18 22:48:58;;;;;;;4.82;3.30;;;;;;;17.54;78.99;102200.19;10456505;28;20500;-62
2021/07/18 22:54:00;;;;;;;6.03;3.45;;;;;;;17.30;79.29;102214.06;10457096;28;20098;-63
2021/07/18 22:59:08;;;;;;;8.60;4.05;;;;;;;17.17;79.76;102211.31;10456367;28;20055;-63
2021/07/18 23:04:10;;;;;;;6.13;4.30;;;;;;;17.14;80.12;102208.84;10455812;28;20045;-62
2021/07/18 23:09:13;;;;;;;6.00;4.05;;;;;;;17.14;80.11;102213.31;10456299;28;20052;-63